createdAt,value
2023-02-11T00:00:55.716Z,0
2023-02-11T00:02:12.007Z,0
2023-02-11T00:03:28.306Z,0
2023-02-11T00:04:44.602Z,0
2023-02-11T00:06:00.889Z,0
2023-02-11T00:07:16.205Z,0
2023-02-11T00:08:32.491Z,0
2023-02-11T00:09:48.801Z,0
2023-02-11T00:11:05.078Z,0
2023-02-11T00:12:21.381Z,0
2023-02-11T00:13:37.677Z,0
2023-02-11T00:16:10.252Z,0
2023-02-11T00:17:26.542Z,0
2023-02-11T00:18:42.840Z,0
2023-02-11T00:19:59.135Z,0
2023-02-11T00:21:15.436Z,0
2023-02-11T00:22:31.720Z,0
2023-02-11T00:23:47.033Z,0
2023-02-11T00:25:03.331Z,0
2023-02-11T00:26:19.623Z,0
2023-02-11T00:27:35.926Z,0
2023-02-11T00:28:52.214Z,0
2023-02-11T00:30:08.508Z,0
2023-02-11T00:31:24.794Z,0
2023-02-11T00:32:41.105Z,0
2023-02-11T00:33:57.383Z,0
2023-02-11T00:35:13.681Z,0
2023-02-11T00:36:29.976Z,0
2023-02-11T00:37:46.276Z,0
2023-02-11T00:39:02.558Z,0
2023-02-11T00:40:17.863Z,0
2023-02-11T00:41:34.166Z,0
2023-02-11T00:42:50.464Z,0
2023-02-11T00:44:06.754Z,0
2023-02-11T00:45:23.053Z,0
2023-02-11T00:46:39.351Z,0
2023-02-11T00:47:55.642Z,0
2023-02-11T00:49:11.940Z,0
2023-02-11T00:50:28.226Z,0
2023-02-11T00:51:44.519Z,0
2023-02-11T00:53:00.821Z,0
2023-02-11T00:54:17.114Z,0
2023-02-11T00:55:33.393Z,0
2023-02-11T00:56:48.712Z,0
2023-02-11T00:58:04.995Z,0
2023-02-11T00:59:21.295Z,0
2023-02-11T01:00:37.590Z,0
2023-02-11T01:01:53.874Z,0
2023-02-11T01:03:10.178Z,0
2023-02-11T01:04:26.473Z,0
2023-02-11T01:05:42.761Z,0
2023-02-11T01:06:59.047Z,0
2023-02-11T01:08:15.355Z,0
2023-02-11T01:09:31.644Z,0
2023-02-11T01:10:47.947Z,0
2023-02-11T01:12:04.225Z,0
2023-02-11T01:13:19.549Z,0
2023-02-11T01:14:35.832Z,0
2023-02-11T01:15:52.125Z,0
2023-02-11T01:17:08.418Z,0
2023-02-11T01:18:24.710Z,0
2023-02-11T01:19:41.009Z,0
2023-02-11T01:20:57.312Z,0
2023-02-11T01:22:13.606Z,0
2023-02-11T01:23:29.901Z,0
2023-02-11T01:24:46.191Z,0
2023-02-11T01:26:02.487Z,0
2023-02-11T01:27:18.768Z,0
2023-02-11T01:28:35.077Z,0
2023-02-11T01:29:50.373Z,0
2023-02-11T01:31:06.665Z,0
2023-02-11T01:32:22.965Z,0
2023-02-11T01:33:39.264Z,0
2023-02-11T01:34:55.546Z,0
2023-02-11T01:36:11.843Z,0
2023-02-11T01:37:28.137Z,0
2023-02-11T01:38:44.426Z,0
2023-02-11T01:40:00.720Z,0
2023-02-11T01:42:33.308Z,0
2023-02-11T01:43:49.607Z,0
2023-02-11T01:45:05.895Z,0
2023-02-11T01:46:21.220Z,0
2023-02-11T01:47:37.510Z,0
2023-02-11T01:48:53.791Z,0
2023-02-11T01:50:10.081Z,0
2023-02-11T01:51:26.376Z,0
2023-02-11T01:52:42.669Z,0
2023-02-11T01:53:58.978Z,0
2023-02-11T01:55:15.268Z,0
2023-02-11T01:56:31.569Z,0
2023-02-11T01:57:47.855Z,0
2023-02-11T01:59:04.160Z,0
2023-02-11T02:00:20.439Z,0
2023-02-11T02:01:36.733Z,0
2023-02-11T02:02:52.048Z,0
2023-02-11T02:04:08.342Z,0
2023-02-11T02:05:24.628Z,0
2023-02-11T02:06:40.921Z,0
2023-02-11T02:07:57.214Z,0
2023-02-11T02:09:13.503Z,0
2023-02-11T02:10:28.822Z,0
2023-02-11T02:11:45.129Z,0
2023-02-11T02:13:01.409Z,0
2023-02-11T02:14:17.706Z,0
2023-02-11T02:15:34.004Z,0
2023-02-11T02:16:50.290Z,0
2023-02-11T02:18:06.593Z,0
2023-02-11T02:19:22.879Z,0
2023-02-11T02:20:39.186Z,0
2023-02-11T02:21:55.464Z,0
2023-02-11T02:23:11.771Z,0
2023-02-11T02:24:28.052Z,0
2023-02-11T02:25:44.343Z,0
2023-02-11T02:26:59.661Z,0
2023-02-11T02:28:15.958Z,0
2023-02-11T02:29:32.243Z,0
2023-02-11T02:30:48.552Z,0
2023-02-11T02:32:04.839Z,0
2023-02-11T02:33:21.138Z,0
2023-02-11T02:34:37.417Z,0
2023-02-11T02:35:53.715Z,0
2023-02-11T02:37:10.016Z,0
2023-02-11T02:38:26.301Z,0
2023-02-11T02:39:42.600Z,0
2023-02-11T02:40:58.897Z,0
2023-02-11T02:42:15.182Z,0
2023-02-11T02:43:30.487Z,0
2023-02-11T02:44:46.780Z,0
2023-02-11T02:46:03.076Z,0
2023-02-11T02:47:19.367Z,0
2023-02-11T02:48:35.669Z,0
2023-02-11T02:49:51.967Z,0
2023-02-11T02:51:08.249Z,0
2023-02-11T02:52:24.540Z,0
2023-02-11T02:53:40.835Z,0
2023-02-11T02:54:57.140Z,0
2023-02-11T02:56:13.440Z,0
2023-02-11T02:57:29.732Z,0
2023-02-11T02:58:46.000Z,0
2023-02-11T03:00:01.323Z,0
2023-02-11T03:01:17.625Z,0
2023-02-11T03:02:33.919Z,0
2023-02-11T03:03:50.201Z,0
2023-02-11T03:05:06.501Z,0
2023-02-11T03:06:22.789Z,0
2023-02-11T03:07:39.080Z,0
2023-02-11T03:08:55.375Z,0
2023-02-11T03:10:11.677Z,0
2023-02-11T03:11:27.965Z,0
2023-02-11T03:12:44.269Z,0
2023-02-11T03:14:00.557Z,0
2023-02-11T03:15:16.844Z,0
2023-02-11T03:16:32.162Z,0
2023-02-11T03:17:48.448Z,0
2023-02-11T03:19:04.743Z,0
2023-02-11T03:20:21.033Z,0
2023-02-11T03:21:37.332Z,0
2023-02-11T03:22:53.626Z,0
2023-02-11T03:24:09.922Z,0
2023-02-11T03:25:26.212Z,0
2023-02-11T03:26:42.502Z,0
2023-02-11T03:27:58.796Z,0
2023-02-11T03:29:15.088Z,0
2023-02-11T03:30:31.385Z,0
2023-02-11T03:31:47.677Z,0
2023-02-11T03:33:02.990Z,0
2023-02-11T03:34:19.288Z,0
2023-02-11T03:35:35.570Z,0
2023-02-11T03:36:51.867Z,0
2023-02-11T03:38:08.159Z,0
2023-02-11T03:39:24.460Z,0
2023-02-11T03:40:40.762Z,0
2023-02-11T03:41:57.055Z,0
2023-02-11T03:43:13.332Z,0
2023-02-11T03:44:29.635Z,0
2023-02-11T03:45:45.921Z,0
2023-02-11T03:47:02.213Z,0
2023-02-11T03:48:18.506Z,0
2023-02-11T03:49:33.822Z,0
2023-02-11T03:50:50.119Z,0
2023-02-11T03:52:06.416Z,0
2023-02-11T03:53:22.714Z,0
2023-02-11T03:54:38.993Z,0
2023-02-11T03:55:55.295Z,0
2023-02-11T03:57:11.593Z,0
2023-02-11T03:58:27.883Z,0
2023-02-11T03:59:44.165Z,0
2023-02-11T04:01:00.461Z,0
2023-02-11T04:02:16.766Z,0
2023-02-11T04:03:33.047Z,0
2023-02-11T04:04:49.341Z,0
2023-02-11T04:06:04.655Z,0
2023-02-11T04:07:20.943Z,0
2023-02-11T04:08:37.243Z,0
2023-02-11T04:09:53.530Z,0
2023-02-11T04:11:09.837Z,0
2023-02-11T04:12:26.127Z,0
2023-02-11T04:13:42.420Z,0
2023-02-11T04:14:58.721Z,0
2023-02-11T04:16:15.003Z,0
2023-02-11T04:17:31.291Z,0
2023-02-11T04:18:47.595Z,0
2023-02-11T04:20:03.890Z,0
2023-02-11T04:21:20.189Z,0
2023-02-11T04:22:35.501Z,0
2023-02-11T04:23:51.776Z,0
2023-02-11T04:25:08.072Z,0
2023-02-11T04:26:24.367Z,0
2023-02-11T04:27:40.657Z,0
2023-02-11T04:28:56.965Z,0
2023-02-11T04:30:13.250Z,0
2023-02-11T04:31:29.550Z,0
2023-02-11T04:32:45.830Z,0
2023-02-11T04:34:02.123Z,0
2023-02-11T04:35:18.421Z,0
2023-02-11T04:36:34.730Z,0
2023-02-11T04:37:51.016Z,0
2023-02-11T04:39:06.322Z,0
2023-02-11T04:40:22.614Z,0
2023-02-11T04:41:38.000Z,0
2023-02-11T04:42:55.203Z,0
2023-02-11T04:44:11.505Z,0
2023-02-11T04:45:27.782Z,0
2023-02-11T04:46:44.080Z,0
2023-02-11T04:48:00.374Z,0
2023-02-11T04:49:16.675Z,0
2023-02-11T04:50:32.955Z,0
2023-02-11T04:51:49.254Z,0
2023-02-11T04:53:05.561Z,0
2023-02-11T04:54:21.837Z,0
2023-02-11T04:55:37.159Z,0
2023-02-11T04:56:53.456Z,0
2023-02-11T04:58:09.738Z,0
2023-02-11T04:59:26.039Z,0
2023-02-11T05:00:42.323Z,0
2023-02-11T05:01:58.621Z,0
2023-02-11T05:03:14.916Z,0
2023-02-11T05:04:31.204Z,0
2023-02-11T05:05:47.508Z,0
2023-02-11T05:07:03.789Z,0
2023-02-11T05:08:20.094Z,0
2023-02-11T05:09:36.380Z,0
2023-02-11T05:10:52.681Z,0
2023-02-11T05:12:07.988Z,0
2023-02-11T05:13:24.277Z,0
2023-02-11T05:14:40.582Z,0
2023-02-11T05:15:56.864Z,0
2023-02-11T05:17:13.157Z,0
2023-02-11T05:18:29.457Z,0
2023-02-11T05:19:45.757Z,0
2023-02-11T05:21:02.040Z,0
2023-02-11T05:22:18.343Z,0
2023-02-11T05:23:34.638Z,0
2023-02-11T05:24:50.921Z,0
2023-02-11T05:26:07.214Z,0
2023-02-11T05:27:23.504Z,0
2023-02-11T05:28:38.816Z,0
2023-02-11T05:29:55.124Z,0
2023-02-11T05:31:11.406Z,0
2023-02-11T05:32:27.693Z,0
2023-02-11T05:33:43.993Z,0
2023-02-11T05:35:00.282Z,0
2023-02-11T05:36:16.579Z,0
2023-02-11T05:37:32.878Z,0
2023-02-11T05:38:49.178Z,0
2023-02-11T05:40:05.462Z,0
2023-02-11T05:41:21.752Z,0
2023-02-11T05:42:38.050Z,0
2023-02-11T05:43:54.337Z,0
2023-02-11T05:45:09.646Z,0
2023-02-11T05:46:25.947Z,0
2023-02-11T05:47:42.241Z,0
2023-02-11T05:48:58.529Z,0
2023-02-11T05:50:14.836Z,0
2023-02-11T05:51:31.120Z,0
2023-02-11T05:52:47.415Z,0
2023-02-11T05:54:03.711Z,0
2023-02-11T05:55:20.012Z,0
2023-02-11T05:56:36.299Z,0
2023-02-11T05:57:52.585Z,0
2023-02-11T05:59:08.883Z,0
2023-02-11T06:00:25.188Z,0
2023-02-11T06:01:40.481Z,0
2023-02-11T06:02:56.784Z,0
2023-02-11T06:04:13.081Z,0
2023-02-11T06:05:29.377Z,0
2023-02-11T06:06:45.673Z,0
2023-02-11T06:08:01.959Z,0
2023-02-11T06:09:18.202Z,1
2023-02-11T06:10:34.491Z,0
2023-02-11T06:11:50.751Z,1
2023-02-11T06:13:06.986Z,1
2023-02-11T06:14:23.269Z,0
2023-02-11T06:15:39.525Z,2
2023-02-11T06:16:55.768Z,1
2023-02-11T06:18:11.041Z,2
2023-02-11T06:19:27.261Z,2
2023-02-11T06:20:43.510Z,1
2023-02-11T06:21:59.755Z,5
2023-02-11T06:23:15.985Z,5
2023-02-11T06:24:32.225Z,4
2023-02-11T06:25:47.489Z,4
2023-02-11T06:27:03.741Z,2
2023-02-11T06:28:19.963Z,4
2023-02-11T06:29:36.209Z,7
2023-02-11T06:30:52.440Z,8
2023-02-11T06:32:08.679Z,7
2023-02-11T06:33:24.927Z,5
2023-02-11T06:34:41.167Z,4
2023-02-11T06:35:57.401Z,13
2023-02-11T06:37:13.652Z,10
2023-02-11T06:38:29.890Z,8
2023-02-11T06:39:46.117Z,8
2023-02-11T06:41:02.375Z,11
2023-02-11T06:42:17.620Z,11
2023-02-11T06:43:33.866Z,14
2023-02-11T06:44:50.091Z,13
2023-02-11T06:46:06.333Z,15
2023-02-11T06:47:22.573Z,17
2023-02-11T06:48:38.820Z,21
2023-02-11T06:49:55.056Z,27
2023-02-11T06:51:11.305Z,26
2023-02-11T06:52:27.534Z,26
2023-02-11T06:53:43.783Z,25
2023-02-11T06:55:00.019Z,22
2023-02-11T06:56:16.256Z,25
2023-02-11T06:57:32.494Z,36
2023-02-11T06:58:47.761Z,42
2023-02-11T07:00:03.986Z,55
2023-02-11T07:01:20.226Z,48
2023-02-11T07:02:36.475Z,43
2023-02-11T07:03:52.701Z,54
2023-02-11T07:05:08.955Z,48
2023-02-11T07:06:25.189Z,40
2023-02-11T07:07:41.429Z,45
2023-02-11T07:08:57.663Z,37
2023-02-11T07:10:13.911Z,46
2023-02-11T07:11:30.140Z,46
2023-02-11T07:12:46.384Z,45
2023-02-11T07:14:02.634Z,50
2023-02-11T07:15:17.879Z,49
2023-02-11T07:16:34.123Z,53
2023-02-11T07:17:50.364Z,57
2023-02-11T07:19:06.605Z,58
2023-02-11T07:20:22.839Z,55
2023-02-11T07:21:39.088Z,59
2023-02-11T07:22:55.314Z,53
2023-02-11T07:24:11.550Z,49
2023-02-11T07:25:27.794Z,66
2023-02-11T07:26:44.034Z,67
2023-02-11T07:28:00.267Z,68
2023-02-11T07:29:16.521Z,66
2023-02-11T07:30:32.754Z,81
2023-02-11T07:31:48.018Z,87
2023-02-11T07:33:04.244Z,78
2023-02-11T07:34:20.496Z,75
2023-02-11T07:35:36.731Z,71
2023-02-11T07:36:52.975Z,76
2023-02-11T07:38:09.199Z,80
2023-02-11T07:39:25.454Z,75
2023-02-11T07:40:41.689Z,106
2023-02-11T07:41:57.937Z,106
2023-02-11T07:43:14.166Z,104
2023-02-11T07:44:30.398Z,100
2023-02-11T07:45:46.643Z,150
2023-02-11T07:47:02.887Z,207
2023-02-11T07:48:18.138Z,168
2023-02-11T07:49:34.377Z,132
2023-02-11T07:50:50.631Z,109
2023-02-11T07:52:06.855Z,94
2023-02-11T07:53:23.096Z,81
2023-02-11T07:54:39.337Z,58
2023-02-11T07:55:55.580Z,41
2023-02-11T07:57:11.816Z,95
2023-02-11T07:58:28.056Z,131
2023-02-11T07:59:44.295Z,119
2023-02-11T08:01:00.526Z,128
2023-02-11T08:02:16.783Z,128
2023-02-11T08:03:33.010Z,135
2023-02-11T08:04:48.276Z,163
2023-02-11T08:06:04.500Z,150
2023-02-11T08:07:20.748Z,167
2023-02-11T08:08:36.992Z,209
2023-02-11T08:09:53.218Z,244
2023-02-11T08:11:09.471Z,305
2023-02-11T08:12:25.716Z,325
2023-02-11T08:13:41.945Z,298
2023-02-11T08:14:58.186Z,264
2023-02-11T08:16:14.430Z,233
2023-02-11T08:17:30.658Z,217
2023-02-11T08:18:46.901Z,210
2023-02-11T08:20:03.146Z,214
2023-02-11T08:21:18.409Z,214
2023-02-11T08:22:34.645Z,208
2023-02-11T08:23:50.880Z,208
2023-02-11T08:25:07.111Z,202
2023-02-11T08:26:23.352Z,208
2023-02-11T08:27:39.591Z,204
2023-02-11T08:28:55.830Z,187
2023-02-11T08:30:12.069Z,196
2023-02-11T08:31:28.325Z,237
2023-02-11T08:32:44.549Z,260
2023-02-11T08:34:00.791Z,272
2023-02-11T08:35:17.032Z,253
2023-02-11T08:36:33.277Z,229
2023-02-11T08:37:48.540Z,233
2023-02-11T08:39:04.760Z,258
2023-02-11T08:40:21.003Z,272
2023-02-11T08:41:37.252Z,308
2023-02-11T08:42:53.494Z,355
2023-02-11T08:44:09.729Z,342
2023-02-11T08:45:25.976Z,298
2023-02-11T08:46:42.211Z,250
2023-02-11T08:47:58.448Z,268
2023-02-11T08:49:14.695Z,302
2023-02-11T08:50:30.931Z,315
2023-02-11T08:51:47.160Z,305
2023-02-11T08:53:03.392Z,323
2023-02-11T08:54:18.667Z,331
2023-02-11T08:55:34.902Z,321
2023-02-11T08:56:51.138Z,378
2023-02-11T08:58:07.380Z,336
2023-02-11T08:59:23.626Z,249
2023-02-11T09:00:39.847Z,198
2023-02-11T09:01:56.099Z,172
2023-02-11T09:03:12.332Z,122
2023-02-11T09:04:28.568Z,97
2023-02-11T09:05:44.808Z,136
2023-02-11T09:07:01.055Z,129
2023-02-11T09:08:17.290Z,135
2023-02-11T09:09:33.535Z,222
2023-02-11T09:10:49.767Z,321
2023-02-11T09:12:05.034Z,317
2023-02-11T09:13:21.272Z,297
2023-02-11T09:14:37.495Z,326
2023-02-11T09:15:53.746Z,320
2023-02-11T09:17:09.991Z,330
2023-02-11T09:18:26.231Z,440
2023-02-11T09:19:42.461Z,456
2023-02-11T09:20:58.698Z,541
2023-02-11T09:22:14.945Z,545
2023-02-11T09:23:31.177Z,457
2023-02-11T09:24:47.415Z,448
2023-02-11T09:26:03.669Z,351
2023-02-11T09:27:19.906Z,264
2023-02-11T09:28:35.148Z,224
2023-02-11T09:29:51.383Z,235
2023-02-11T09:31:07.629Z,231
2023-02-11T09:32:23.867Z,267
2023-02-11T09:33:40.120Z,335
2023-02-11T09:34:56.348Z,366
2023-02-11T09:36:12.585Z,405
2023-02-11T09:37:28.825Z,381
2023-02-11T09:38:45.074Z,366
2023-02-11T09:40:01.319Z,358
2023-02-11T09:41:17.547Z,300
2023-02-11T09:42:33.782Z,239
2023-02-11T09:43:50.038Z,245
2023-02-11T09:45:05.278Z,265
2023-02-11T09:46:21.526Z,237
2023-02-11T09:47:37.774Z,256
2023-02-11T09:48:53.998Z,273
2023-02-11T09:50:10.234Z,222
2023-02-11T09:51:26.486Z,215
2023-02-11T09:52:42.709Z,249
2023-02-11T09:53:58.956Z,377
2023-02-11T09:55:15.203Z,459
2023-02-11T09:56:31.435Z,408
2023-02-11T09:57:47.671Z,392
2023-02-11T09:59:03.920Z,542
2023-02-11T10:00:20.145Z,422
2023-02-11T10:01:35.408Z,409
2023-02-11T10:02:51.645Z,493
2023-02-11T10:04:07.883Z,659
2023-02-11T10:05:24.139Z,565
2023-02-11T10:06:40.360Z,343
2023-02-11T10:07:56.609Z,387
2023-02-11T10:09:12.848Z,311
2023-02-11T10:10:29.096Z,383
2023-02-11T10:11:45.324Z,446
2023-02-11T10:13:01.554Z,334
2023-02-11T10:14:17.812Z,421
2023-02-11T10:15:34.040Z,519
2023-02-11T10:16:50.289Z,506
2023-02-11T10:18:05.547Z,532
2023-02-11T10:19:21.786Z,554
2023-02-11T10:20:38.018Z,447
2023-02-11T10:21:54.252Z,527
2023-02-11T10:23:10.493Z,442
2023-02-11T10:24:26.742Z,411
2023-02-11T10:25:42.988Z,456
2023-02-11T10:26:59.212Z,457
2023-02-11T10:28:15.453Z,484
2023-02-11T10:29:31.688Z,593
2023-02-11T10:30:47.927Z,524
2023-02-11T10:32:04.169Z,493
2023-02-11T10:33:20.413Z,706
2023-02-11T10:34:35.663Z,893
2023-02-11T10:35:51.912Z,734
2023-02-11T10:37:08.150Z,598
2023-02-11T10:38:24.377Z,551
2023-02-11T10:39:40.633Z,512
2023-02-11T10:40:55.887Z,477
2023-02-11T10:42:12.131Z,544
2023-02-11T10:43:28.360Z,471
2023-02-11T10:44:44.601Z,465
2023-02-11T10:46:00.854Z,417
2023-02-11T10:47:17.092Z,384
2023-02-11T10:48:33.315Z,449
2023-02-11T10:49:49.560Z,546
2023-02-11T10:51:05.798Z,436
2023-02-11T10:52:22.034Z,408
2023-02-11T10:53:38.274Z,467
2023-02-11T10:54:54.511Z,276
2023-02-11T10:56:10.753Z,349
2023-02-11T10:57:26.005Z,356
2023-02-11T10:58:42.259Z,352
2023-02-11T10:59:58.489Z,194
2023-02-11T11:01:14.740Z,269
2023-02-11T11:02:30.962Z,347
2023-02-11T11:03:47.212Z,417
2023-02-11T11:05:03.441Z,419
2023-02-11T11:06:19.684Z,311
2023-02-11T11:07:35.934Z,321
2023-02-11T11:08:52.165Z,304
2023-02-11T11:10:08.414Z,298
2023-02-11T11:11:24.640Z,338
2023-02-11T11:12:40.883Z,387
2023-02-11T11:13:56.135Z,403
2023-02-11T11:15:12.382Z,401
2023-02-11T11:16:28.618Z,439
2023-02-11T11:17:44.868Z,446
2023-02-11T11:19:01.099Z,384
2023-02-11T11:20:17.342Z,430
2023-02-11T11:21:33.583Z,470
2023-02-11T11:22:49.807Z,407
2023-02-11T11:24:06.069Z,371
2023-02-11T11:25:22.293Z,391
2023-02-11T11:26:38.527Z,387
2023-02-11T11:27:54.781Z,387
2023-02-11T11:29:11.017Z,434
2023-02-11T11:30:26.274Z,410
2023-02-11T11:31:42.514Z,396
2023-02-11T11:32:58.742Z,432
2023-02-11T11:34:14.990Z,353
2023-02-11T11:35:31.232Z,313
2023-02-11T11:36:47.480Z,409
2023-02-11T11:38:03.701Z,408
2023-02-11T11:39:19.940Z,350
2023-02-11T11:40:36.184Z,365
2023-02-11T11:41:52.423Z,371
2023-02-11T11:43:08.666Z,306
2023-02-11T11:44:24.900Z,310
2023-02-11T11:45:41.138Z,358
2023-02-11T11:46:56.394Z,286
2023-02-11T11:48:12.648Z,329
2023-02-11T11:49:28.883Z,362
2023-02-11T11:50:45.117Z,310
2023-02-11T11:52:01.362Z,374
2023-02-11T11:53:17.611Z,298
2023-02-11T11:54:33.833Z,322
2023-02-11T11:55:50.069Z,273
2023-02-11T11:57:06.314Z,322
2023-02-11T11:58:22.560Z,305
2023-02-11T11:59:38.788Z,278
2023-02-11T12:00:55.023Z,306
2023-02-11T12:02:11.276Z,275
2023-02-11T12:03:26.519Z,254
2023-02-11T12:04:42.761Z,234
2023-02-11T12:05:59.009Z,193
2023-02-11T12:07:15.252Z,236
2023-02-11T12:08:31.490Z,268
2023-02-11T12:09:47.714Z,280
2023-02-11T12:11:03.954Z,294
2023-02-11T12:12:20.200Z,251
2023-02-11T12:13:36.449Z,280
2023-02-11T12:14:52.691Z,253
2023-02-11T12:16:08.931Z,278
2023-02-11T12:17:25.151Z,310
2023-02-11T12:18:41.408Z,262
2023-02-11T12:19:56.649Z,211
2023-02-11T12:21:12.901Z,247
2023-02-11T12:22:29.138Z,230
2023-02-11T12:23:45.388Z,236
2023-02-11T12:25:01.605Z,218
2023-02-11T12:26:17.847Z,209
2023-02-11T12:27:34.098Z,200
2023-02-11T12:28:50.328Z,200
2023-02-11T12:30:06.573Z,192
2023-02-11T12:31:22.816Z,212
2023-02-11T12:32:39.039Z,225
2023-02-11T12:33:55.282Z,201
2023-02-11T12:35:11.519Z,247
2023-02-11T12:36:26.778Z,290
2023-02-11T12:37:43.021Z,255
2023-02-11T12:38:59.262Z,303
2023-02-11T12:40:15.495Z,287
2023-02-11T12:41:31.738Z,230
2023-02-11T12:42:47.983Z,225
2023-02-11T12:44:04.213Z,230
2023-02-11T12:45:20.470Z,242
2023-02-11T12:46:36.693Z,212
2023-02-11T12:47:52.946Z,272
2023-02-11T12:49:09.178Z,236
2023-02-11T12:50:25.410Z,241
2023-02-11T12:51:41.647Z,273
2023-02-11T12:52:56.920Z,246
2023-02-11T12:54:13.161Z,238
2023-02-11T12:55:29.403Z,248
2023-02-11T12:56:45.629Z,246
2023-02-11T12:58:01.870Z,217
2023-02-11T12:59:18.109Z,209
2023-02-11T13:00:34.348Z,208
2023-02-11T13:01:50.587Z,214
2023-02-11T13:03:06.826Z,261
2023-02-11T13:04:23.056Z,236
2023-02-11T13:14:06.690Z,157
2023-02-11T13:15:22.918Z,184
2023-02-11T13:16:39.147Z,157
2023-02-11T13:17:55.388Z,130
2023-02-11T13:19:11.642Z,138
2023-02-11T13:20:27.886Z,132
2023-02-11T13:21:44.128Z,130
2023-02-11T13:23:00.370Z,152
2023-02-11T13:24:16.605Z,172
2023-02-11T13:25:32.826Z,193
2023-02-11T13:26:49.076Z,175
2023-02-11T13:28:05.308Z,183
2023-02-11T13:29:21.547Z,232
2023-02-11T13:30:37.784Z,53
2023-02-11T13:31:54.034Z,134
2023-02-11T13:33:10.277Z,131
2023-02-11T13:34:26.512Z,117
2023-02-11T13:35:42.755Z,116
2023-02-11T13:36:58.996Z,82
2023-02-11T13:38:15.248Z,103
2023-02-11T13:39:30.499Z,145
2023-02-11T13:40:45.745Z,172
2023-02-11T13:42:01.991Z,160
2023-02-11T13:43:18.224Z,165
2023-02-11T13:44:34.468Z,151
2023-02-11T13:45:50.708Z,144
2023-02-11T13:47:06.954Z,151
2023-02-11T13:48:23.179Z,142
2023-02-11T13:49:39.433Z,150
2023-02-11T13:50:55.658Z,145
2023-02-11T13:52:11.906Z,149
2023-02-11T13:53:28.146Z,160
2023-02-11T13:54:44.384Z,180
2023-02-11T13:56:00.633Z,134
2023-02-11T13:57:15.872Z,194
2023-02-11T13:58:32.128Z,172
2023-02-11T13:59:48.351Z,163
2023-02-11T14:01:04.602Z,137
2023-02-11T14:02:20.841Z,141
2023-02-11T14:03:37.081Z,134
2023-02-11T14:04:53.314Z,117
2023-02-11T14:06:08.578Z,128
2023-02-11T14:07:23.832Z,136
2023-02-11T14:08:40.088Z,145
2023-02-11T14:09:56.310Z,137
2023-02-11T14:11:12.544Z,130
2023-02-11T14:12:28.782Z,121
2023-02-11T14:13:45.037Z,100
2023-02-11T14:15:01.280Z,112
2023-02-11T14:16:17.511Z,127
2023-02-11T14:17:33.754Z,119
2023-02-11T14:18:49.986Z,120
2023-02-11T14:20:06.228Z,121
2023-02-11T14:21:22.463Z,127
2023-02-11T14:22:38.710Z,129
2023-02-11T14:23:53.959Z,114
2023-02-11T14:25:10.216Z,101
2023-02-11T14:26:26.449Z,99
2023-02-11T14:27:42.702Z,99
2023-02-11T14:28:58.935Z,94
2023-02-11T14:30:15.170Z,84
2023-02-11T14:31:31.397Z,86
2023-02-11T14:32:46.661Z,85
2023-02-11T14:34:01.926Z,82
2023-02-11T14:35:17.177Z,86
2023-02-11T14:36:32.438Z,98
2023-02-11T14:37:48.686Z,87
2023-02-11T14:39:04.906Z,85
2023-02-11T14:40:21.152Z,76
2023-02-11T14:41:37.403Z,71
2023-02-11T14:42:53.627Z,80
2023-02-11T14:44:09.882Z,89
2023-02-11T14:45:26.113Z,82
2023-02-11T14:46:42.349Z,77
2023-02-11T14:47:58.585Z,87
2023-02-11T14:49:14.829Z,69
2023-02-11T14:50:31.073Z,79
2023-02-11T14:51:47.306Z,96
2023-02-11T14:53:02.570Z,82
2023-02-11T14:54:18.812Z,82
2023-02-11T14:55:35.055Z,98
2023-02-11T14:56:51.278Z,108
2023-02-11T14:58:07.000Z,95
2023-02-11T14:59:23.765Z,119
2023-02-11T15:00:39.996Z,121
2023-02-11T15:01:55.265Z,125
2023-02-11T15:03:10.524Z,104
2023-02-11T15:04:25.779Z,112
2023-02-11T15:05:41.044Z,111
2023-02-11T15:06:56.299Z,117
2023-02-11T15:08:11.569Z,122
2023-02-11T15:09:27.801Z,127
2023-02-11T15:10:44.033Z,120
2023-02-11T15:12:00.273Z,115
2023-02-11T15:13:16.508Z,124
2023-02-11T15:14:32.753Z,101
2023-02-11T15:15:48.984Z,101
2023-02-11T15:17:05.230Z,98
2023-02-11T15:18:21.476Z,103
2023-02-11T15:19:37.707Z,88
2023-02-11T15:20:53.942Z,91
2023-02-11T15:22:10.201Z,77
2023-02-11T15:23:26.435Z,60
2023-02-11T15:24:41.682Z,45
2023-02-11T15:25:57.922Z,55
2023-02-11T15:27:14.167Z,60
2023-02-11T15:28:30.398Z,64
2023-02-11T15:29:46.637Z,69
2023-02-11T15:31:02.884Z,62
2023-02-11T15:32:19.133Z,58
2023-02-11T15:33:34.378Z,46
2023-02-11T15:34:49.647Z,51
2023-02-11T15:36:04.897Z,59
2023-02-11T15:37:20.166Z,60
2023-02-11T15:38:36.390Z,58
2023-02-11T15:39:52.649Z,42
2023-02-11T15:41:08.888Z,45
2023-02-11T15:42:25.113Z,53
2023-02-11T15:43:41.354Z,46
2023-02-11T15:44:57.590Z,53
2023-02-11T15:46:13.838Z,52
2023-02-11T15:47:30.074Z,41
2023-02-11T15:48:46.310Z,38
2023-02-11T15:50:02.563Z,39
2023-02-11T15:51:18.803Z,29
2023-02-11T15:52:35.025Z,30
2023-02-11T15:53:50.293Z,37
2023-02-11T15:55:06.534Z,33
2023-02-11T15:56:22.761Z,37
2023-02-11T15:57:39.012Z,33
2023-02-11T15:58:55.238Z,34
2023-02-11T16:00:11.491Z,30
2023-02-11T16:01:27.721Z,32
2023-02-11T16:02:42.995Z,31
2023-02-11T16:03:58.244Z,26
2023-02-11T16:05:13.500Z,21
2023-02-11T16:06:28.752Z,17
2023-02-11T16:07:44.996Z,17
2023-02-11T16:09:01.245Z,14
2023-02-11T16:10:17.485Z,12
2023-02-11T16:11:33.726Z,12
2023-02-11T16:12:49.957Z,10
2023-02-11T16:14:06.200Z,6
2023-02-11T16:15:22.428Z,5
2023-02-11T16:16:38.684Z,6
2023-02-11T16:17:54.912Z,9
2023-02-11T16:19:11.160Z,6
2023-02-11T16:20:27.394Z,4
2023-02-11T16:21:43.643Z,2
2023-02-11T16:22:58.890Z,2
2023-02-11T16:24:15.137Z,3
2023-02-11T16:25:31.371Z,5
2023-02-11T16:26:47.625Z,5
2023-02-11T16:28:03.913Z,0
2023-02-11T16:29:20.154Z,1
2023-02-11T16:30:36.376Z,1
2023-02-11T16:31:51.696Z,0
2023-02-11T16:33:08.001Z,0
2023-02-11T16:34:23.314Z,0
2023-02-11T16:35:39.597Z,0
2023-02-11T16:36:55.845Z,1
2023-02-11T16:38:12.084Z,1
2023-02-11T16:39:28.326Z,1
2023-02-11T16:40:44.623Z,0
2023-02-11T16:42:00.915Z,0
2023-02-11T16:43:17.217Z,0
2023-02-11T16:44:33.506Z,0
2023-02-11T16:45:49.795Z,0
2023-02-11T16:47:06.087Z,0
2023-02-11T16:48:22.397Z,0
2023-02-11T16:49:38.667Z,0
2023-02-11T16:50:53.992Z,0
2023-02-11T16:52:10.287Z,0
2023-02-11T16:53:26.581Z,0
2023-02-11T16:54:42.869Z,0
2023-02-11T16:55:59.160Z,0
2023-02-11T16:57:15.458Z,0
2023-02-11T16:58:30.762Z,0
2023-02-11T16:59:47.901Z,0
2023-02-11T17:01:02.363Z,0
2023-02-11T17:02:18.659Z,0
2023-02-11T17:03:34.966Z,0
2023-02-11T17:04:51.243Z,0
2023-02-11T17:06:07.542Z,0
2023-02-11T17:07:23.834Z,0
2023-02-11T17:08:40.140Z,0
2023-02-11T17:09:56.418Z,0
2023-02-11T17:11:12.717Z,0
2023-02-11T17:12:29.011Z,0
2023-02-11T17:13:45.304Z,0
2023-02-11T17:15:01.599Z,0
2023-02-11T17:16:16.906Z,0
2023-02-11T17:17:33.206Z,0
2023-02-11T17:18:49.496Z,0
2023-02-11T17:20:05.787Z,0
2023-02-11T17:21:22.094Z,0
2023-02-11T17:22:38.377Z,0
2023-02-11T17:23:54.666Z,0
2023-02-11T17:25:09.991Z,0
2023-02-11T17:26:25.295Z,0
2023-02-11T17:27:40.620Z,0
2023-02-11T17:28:55.923Z,0
2023-02-11T17:30:12.224Z,0
2023-02-11T17:31:28.517Z,0
2023-02-11T17:32:44.804Z,0
2023-02-11T17:34:01.095Z,0
2023-02-11T17:35:17.387Z,0
2023-02-11T17:36:33.688Z,0
2023-02-11T17:37:49.984Z,0
2023-02-11T17:39:06.270Z,0
2023-02-11T17:40:22.566Z,0
2023-02-11T17:41:38.862Z,0
2023-02-11T17:42:55.163Z,0
2023-02-11T17:44:11.454Z,0
2023-02-11T17:45:26.750Z,0
2023-02-11T17:46:43.054Z,0
2023-02-11T17:47:59.342Z,0
2023-02-11T17:49:15.658Z,0
2023-02-11T17:50:31.929Z,0
2023-02-11T17:51:48.228Z,0
2023-02-11T17:53:04.516Z,0
2023-02-11T17:54:19.839Z,0
2023-02-11T17:55:35.154Z,0
2023-02-11T17:56:50.470Z,0
2023-02-11T17:58:05.775Z,0
2023-02-11T17:59:21.076Z,0
2023-02-11T18:00:36.405Z,0
2023-02-11T18:01:52.692Z,0
2023-02-11T18:03:08.982Z,0
2023-02-11T18:04:25.280Z,0
2023-02-11T18:05:41.564Z,0
2023-02-11T18:06:57.857Z,0
2023-02-11T18:08:14.152Z,0
2023-02-11T18:09:30.451Z,0
2023-02-11T18:10:46.739Z,0
2023-02-11T18:12:03.038Z,0
2023-02-11T18:13:19.325Z,0
2023-02-11T18:14:35.622Z,0
2023-02-11T18:15:51.912Z,0
2023-02-11T18:17:07.222Z,0
2023-02-11T18:18:23.518Z,0
2023-02-11T18:19:39.806Z,0
2023-02-11T18:20:56.100Z,0